Time;durP1;ratioP1;P1;durP2;ratioP2;P2;SDS_P1;SDS_P2;PMS_P1;PMS_P2;Temp;Humidity;BMP_temperature;BMP_pressure;BME280_temperature;BME280_humidity;BME280_pressure;Samples;Min_cycle;Max_cycle;Signal;HPM_P1;HPM_P2
2022/01/14 00:00:34;;;;;;;24.67;10.57;;;5.80;99.90;;;;;;4955352;28;20097;-70
2022/01/14 00:03:00;;;;;;;22.70;9.83;;;5.80;99.90;;;;;;4962373;28;20038;-71
2022/01/14 00:05:25;;;;;;;26.13;10.40;;;5.80;99.90;;;;;;4957789;28;20143;-70
2022/01/14 00:07:51;;;;;;;31.60;10.67;;;5.80;99.90;;;;;;4951682;28;20035;-72
2022/01/14 00:10:16;;;;;;;26.17;10.77;;;5.80;99.90;;;;;;4962487;28;20436;-70
2022/01/14 00:12:53;;;;;;;26.00;10.93;;;5.80;99.90;;;;;;4959961;28;20101;-70
2022/01/14 00:15:26;;;;;;;30.58;12.02;;;5.80;99.90;;;;;;4954646;28;20552;-70
2022/01/14 00:17:53;;;;;;;26.15;11.27;;;5.90;99.90;;;;;;4957886;28;20054;-71
2022/01/14 00:20:20;;;;;;;22.55;10.65;;;5.90;99.90;;;;;;4955211;28;20556;-71
2022/01/14 00:22:46;;;;;;;25.05;11.43;;;5.80;99.90;;;;;;4953837;28;20102;-71
2022/01/14 00:33:09;;;;;;;21.95;9.32;;;5.80;99.90;;;;;;4959686;28;20073;-71
2022/01/14 00:35:41;;;;;;;28.38;11.32;;;5.90;99.90;;;;;;4959609;28;20315;-71
2022/01/14 00:38:07;;;;;;;31.23;11.07;;;5.90;99.90;;;;;;4962193;28;20050;-71
2022/01/14 00:40:34;;;;;;;26.48;10.43;;;5.90;99.90;;;;;;4946780;28;20045;-71
2022/01/14 00:43:00;;;;;;;22.65;9.45;;;5.90;99.90;;;;;;4963315;28;20403;-70
2022/01/14 00:45:25;;;;;;;24.33;10.27;;;5.90;99.90;;;;;;4964563;28;20066;-70
2022/01/14 00:47:51;;;;;;;25.47;10.73;;;5.90;99.90;;;;;;4958503;28;20125;-71
2022/01/14 00:50:18;;;;;;;20.30;9.57;;;5.90;99.90;;;;;;4958258;28;20547;-70
2022/01/14 00:52:44;;;;;;;24.80;10.45;;;5.90;99.90;;;;;;4952489;28;20143;-71
2022/01/14 00:55:14;;;;;;;24.27;10.40;;;5.90;99.90;;;;;;4964321;28;20049;-70
2022/01/14 01:00:27;;;;;;;33.88;10.70;;;5.80;99.90;;;;;;4955965;28;20047;-71
2022/01/14 01:02:53;;;;;;;27.77;11.07;;;5.80;99.90;;;;;;4958996;28;20094;-71
2022/01/14 01:05:19;;;;;;;23.63;10.20;;;5.70;99.90;;;;;;4944581;28;20039;-70
2022/01/14 01:07:54;;;;;;;26.17;10.95;;;5.70;99.90;;;;;;4955924;28;20049;-71
2022/01/14 01:10:20;;;;;;;26.58;10.05;;;5.70;99.90;;;;;;4958174;28;20039;-71
2022/01/14 01:12:53;;;;;;;24.07;9.63;;;5.70;99.90;;;;;;4950479;28;20050;-71
2022/01/14 01:15:20;;;;;;;22.65;10.70;;;5.70;99.90;;;;;;4959310;28;20475;-76
2022/01/14 01:17:47;;;;;;;27.30;10.80;;;5.70;99.90;;;;;;4960989;28;20046;-73
2022/01/14 01:20:17;;;;;;;26.85;10.60;;;5.70;99.90;;;;;;4963555;28;20082;-70
2022/01/14 01:22:46;;;;;;;27.67;10.30;;;5.70;99.90;;;;;;4956364;28;20053;-70
2022/01/14 01:25:13;;;;;;;27.17;10.38;;;5.70;99.90;;;;;;4955319;28;20043;-71
2022/01/14 01:27:41;;;;;;;22.40;10.70;;;5.70;99.90;;;;;;4951700;28;20173;-71
2022/01/14 01:33:03;;;;;;;24.50;10.57;;;5.80;99.90;;;;;;4964381;28;20056;-71
2022/01/14 01:35:32;;;;;;;23.25;10.50;;;5.80;99.90;;;;;;4951548;28;20362;-70
2022/01/14 01:37:58;;;;;;;28.58;11.27;;;5.80;99.90;;;;;;4953462;28;20050;-71
2022/01/14 01:40:25;;;;;;;25.20;10.57;;;5.80;99.90;;;;;;4955073;28;20049;-70
2022/01/14 01:42:54;;;;;;;31.40;12.00;;;5.80;99.90;;;;;;4956616;28;20491;-71
2022/01/14 01:45:23;;;;;;;24.88;11.82;;;5.90;99.90;;;;;;4961407;28;20039;-71
2022/01/14 01:47:50;;;;;;;30.42;10.98;;;5.90;99.90;;;;;;4960450;28;20391;-71
2022/01/14 01:50:19;;;;;;;28.00;11.40;;;5.90;99.90;;;;;;4957604;28;20042;-71
2022/01/14 01:52:46;;;;;;;28.35;10.98;;;5.90;99.90;;;;;;4951195;28;20058;-80
2022/01/14 01:55:13;;;;;;;26.92;11.60;;;6.00;99.90;;;;;;4963695;28;20416;-77
2022/01/14 01:57:41;;;;;;;30.48;12.23;;;6.00;99.90;;;;;;4963785;28;20105;-78
2022/01/14 02:00:08;;;;;;;22.65;10.90;;;6.00;99.90;;;;;;4955314;28;20039;-69
2022/01/14 02:02:36;;;;;;;24.25;10.07;;;6.00;99.90;;;;;;4977595;28;20047;-68
2022/01/14 02:05:02;;;;;;;23.65;10.07;;;6.00;99.90;;;;;;4963177;28;20080;-69
2022/01/14 02:07:28;;;;;;;22.27;9.60;;;6.00;99.90;;;;;;4970211;28;20127;-68
2022/01/14 02:09:53;;;;;;;22.70;9.37;;;6.00;99.90;;;;;;4952462;28;20043;-68
2022/01/14 02:12:19;;;;;;;25.27;10.27;;;6.00;99.90;;;;;;4959506;28;20042;-69
2022/01/14 02:14:56;;;;;;;32.97;11.23;;;6.00;99.90;;;;;;4961399;28;20051;-68
2022/01/14 02:22:56;;;;;;;28.67;10.35;;;6.00;99.90;;;;;;4953743;28;20455;-68
2022/01/14 02:25:29;;;;;;;30.75;9.88;;;6.00;99.90;;;;;;4985712;28;20045;-69
2022/01/14 02:28:00;;;;;;;25.83;10.10;;;6.10;99.90;;;;;;4965745;28;20109;-69
2022/01/14 02:30:27;;;;;;;20.45;9.15;;;6.10;99.90;;;;;;4954311;28;20958;-69
2022/01/14 02:32:53;;;;;;;25.40;9.30;;;6.00;99.90;;;;;;4960746;28;20130;-68
2022/01/14 02:35:18;;;;;;;30.57;10.87;;;6.10;99.90;;;;;;4958641;28;20545;-69
2022/01/14 02:37:44;;;;;;;20.97;10.10;;;6.00;99.90;;;;;;4976858;28;20086;-68
2022/01/14 02:40:11;;;;;;;28.83;10.30;;;6.10;99.90;;;;;;4962428;28;20472;-68
2022/01/14 02:42:37;;;;;;;24.05;11.13;;;6.00;99.90;;;;;;4969005;28;20038;-68
2022/01/14 02:45:06;;;;;;;25.05;10.05;;;6.10;99.90;;;;;;4957913;28;20062;-69
2022/01/14 02:47:35;;;;;;;29.35;10.43;;;6.10;99.90;;;;;;4963534;28;20419;-69
2022/01/14 02:50:00;;;;;;;24.03;10.23;;;6.10;99.90;;;;;;4958243;28;20074;-69
2022/01/14 02:52:42;;;;;;;29.47;9.93;;;6.10;99.90;;;;;;4945291;28;20038;-68
2022/01/14 02:55:18;;;;;;;28.10;10.68;;;6.10;99.90;;;;;;4960165;28;20100;-68
2022/01/14 02:57:52;;;;;;;28.13;10.77;;;6.10;99.90;;;;;;4961204;28;20093;-69
2022/01/14 03:00:21;;;;;;;32.28;12.00;;;6.20;99.90;;;;;;4958894;28;20039;-69
2022/01/14 03:02:50;;;;;;;22.65;10.13;;;6.20;99.90;;;;;;4961125;28;20117;-69
2022/01/14 03:05:18;;;;;;;23.90;11.80;;;6.20;99.90;;;;;;4961536;28;20042;-68
2022/01/14 03:07:45;;;;;;;27.92;11.15;;;6.20;99.90;;;;;;4953627;28;20074;-69
2022/01/14 03:10:14;;;;;;;29.83;11.45;;;6.20;99.90;;;;;;4963390;28;20094;-69
2022/01/14 03:12:41;;;;;;;30.73;11.32;;;6.20;99.90;;;;;;4961585;28;20038;-68
2022/01/14 03:15:08;;;;;;;36.30;12.35;;;6.20;99.90;;;;;;4949789;28;20129;-68
2022/01/14 03:17:34;;;;;;;25.30;10.23;;;6.30;99.90;;;;;;4961844;28;20047;-68
2022/01/14 03:20:01;;;;;;;32.73;12.13;;;6.30;99.90;;;;;;4960946;28;20488;-69
2022/01/14 03:22:37;;;;;;;28.17;11.80;;;6.30;99.90;;;;;;4960978;28;20058;-69
2022/01/14 03:27:47;;;;;;;27.63;11.88;;;6.40;99.90;;;;;;4957152;28;20034;-69
2022/01/14 03:30:14;;;;;;;25.80;10.63;;;6.40;99.90;;;;;;4958178;28;20046;-69
2022/01/14 03:32:41;;;;;;;28.35;10.77;;;6.40;99.90;;;;;;4962783;28;20047;-69
2022/01/14 03:35:08;;;;;;;26.35;11.18;;;6.40;99.90;;;;;;4957217;28;20046;-69
2022/01/14 03:37:34;;;;;;;27.52;11.15;;;6.40;99.90;;;;;;4957832;28;20109;-68
2022/01/14 03:39:59;;;;;;;29.45;11.75;;;6.40;99.90;;;;;;4962630;28;20412;-69
2022/01/14 03:42:25;;;;;;;26.37;11.30;;;6.50;99.90;;;;;;4959887;28;20043;-69
2022/01/14 03:44:51;;;;;;;28.87;10.93;;;6.40;99.90;;;;;;4959554;28;20057;-69
2022/01/14 03:47:17;;;;;;;19.00;9.43;;;6.50;99.90;;;;;;4960603;28;20526;-69
2022/01/14 03:49:43;;;;;;;26.90;11.65;;;6.50;99.90;;;;;;4957318;28;20105;-68
2022/01/14 03:52:08;;;;;;;23.07;11.73;;;6.50;99.90;;;;;;4958869;28;20428;-69
2022/01/14 03:54:34;;;;;;;31.57;10.90;;;6.40;99.90;;;;;;4960525;28;20051;-68
2022/01/14 03:56:59;;;;;;;30.27;11.83;;;6.50;99.90;;;;;;4956284;28;20377;-68
2022/01/14 03:59:25;;;;;;;24.27;11.23;;;6.50;99.90;;;;;;4957129;28;20066;-68
2022/01/14 04:01:51;;;;;;;22.60;11.13;;;6.50;99.90;;;;;;4962451;28;20097;-69
2022/01/14 04:04:16;;;;;;;30.50;11.27;;;6.50;99.90;;;;;;4967551;28;20050;-69
2022/01/14 04:06:42;;;;;;;27.20;12.43;;;6.50;99.90;;;;;;4962214;28;20118;-68
2022/01/14 04:09:07;;;;;;;35.50;13.07;;;6.50;99.90;;;;;;4961910;28;20425;-68
2022/01/14 04:11:34;;;;;;;24.93;12.13;;;6.50;99.90;;;;;;4962288;28;20687;-69
2022/01/14 04:16:44;;;;;;;27.02;11.73;;;6.50;99.90;;;;;;4964456;28;20082;-69
2022/01/14 04:19:10;;;;;;;29.33;12.57;;;6.50;99.90;;;;;;4961225;28;20066;-68
2022/01/14 04:21:36;;;;;;;21.47;11.33;;;6.50;99.90;;;;;;4964197;28;20051;-69
2022/01/14 04:24:01;;;;;;;24.40;11.53;;;6.50;99.90;;;;;;4964608;28;20042;-68
2022/01/14 04:26:27;;;;;;;19.87;11.27;;;6.50;99.90;;;;;;4964823;28;20105;-69
2022/01/14 04:28:52;;;;;;;27.93;11.53;;;6.50;99.90;;;;;;4965816;28;20047;-69
2022/01/14 04:31:18;;;;;;;29.60;10.73;;;6.50;99.90;;;;;;4959288;28;20042;-69
2022/01/14 04:33:44;;;;;;;24.43;10.80;;;6.50;99.90;;;;;;4957883;28;20030;-68
2022/01/14 04:36:09;;;;;;;21.93;10.60;;;6.40;99.90;;;;;;4960440;28;20532;-69
2022/01/14 04:38:35;;;;;;;22.63;11.33;;;6.50;99.90;;;;;;4963928;28;20045;-68
2022/01/14 04:41:02;;;;;;;23.88;11.93;;;6.30;99.90;;;;;;4961481;28;20051;-69
2022/01/14 04:43:29;;;;;;;28.02;10.80;;;6.40;99.90;;;;;;4947269;28;20042;-68
2022/01/14 04:46:23;;;;;;;29.58;11.48;;;6.40;99.90;;;;;;4966039;28;20061;-69
2022/01/14 04:48:43;;;;;;;26.30;11.57;;;6.40;99.90;;;;;;4956080;28;20141;-69
2022/01/14 04:51:10;;;;;;;28.50;11.27;;;6.40;99.90;;;;;;4960271;28;20480;-69
2022/01/14 04:53:36;;;;;;;32.80;12.05;;;6.40;99.90;;;;;;4961432;28;20039;-69
2022/01/14 04:56:02;;;;;;;30.13;11.27;;;6.30;99.90;;;;;;4964617;28;20054;-68
2022/01/14 04:58:28;;;;;;;29.50;12.20;;;6.30;99.90;;;;;;4955210;28;20039;-69
2022/01/14 05:00:55;;;;;;;38.83;12.73;;;6.30;99.90;;;;;;4962502;28;20046;-69
2022/01/14 05:03:21;;;;;;;24.77;12.07;;;6.30;99.90;;;;;;4947180;28;20042;-68
2022/01/14 05:05:50;;;;;;;25.73;12.73;;;6.40;99.90;;;;;;4963398;28;20651;-68
2022/01/14 05:08:23;;;;;;;32.72;12.35;;;6.40;99.90;;;;;;4961761;28;20093;-68
2022/01/14 05:13:17;;;;;;;29.60;12.52;;;6.40;99.90;;;;;;4965645;28;20054;-69
2022/01/14 05:15:43;;;;;;;22.47;11.00;;;6.40;99.90;;;;;;4964739;28;20682;-69
2022/01/14 05:18:09;;;;;;;24.83;12.60;;;6.30;99.90;;;;;;4960697;28;20476;-68
2022/01/14 05:20:35;;;;;;;27.80;12.67;;;6.40;99.90;;;;;;4970308;28;20487;-68
2022/01/14 05:23:00;;;;;;;21.67;12.13;;;6.30;99.90;;;;;;4961692;28;20031;-69
2022/01/14 05:25:26;;;;;;;29.77;11.77;;;6.30;99.90;;;;;;4962061;28;20133;-69
2022/01/14 05:27:51;;;;;;;27.07;11.70;;;6.30;99.90;;;;;;4961041;28;20117;-69
2022/01/14 05:30:17;;;;;;;28.70;11.30;;;6.30;99.90;;;;;;4958479;28;20046;-68
2022/01/14 05:32:46;;;;;;;20.93;11.10;;;6.30;99.90;;;;;;4958785;28;20389;-68
2022/01/14 05:35:13;;;;;;;27.02;11.10;;;6.30;99.90;;;;;;4957762;28;20397;-69
2022/01/14 05:37:38;;;;;;;;;;;6.20;99.90;;;;;;4956507;28;20042;-68
2022/01/14 05:40:08;;;;;;;26.73;10.95;;;6.30;99.90;;;;;;4959618;28;20303;-69
2022/01/14 05:42:34;;;;;;;22.33;11.32;;;6.30;99.90;;;;;;4964753;28;20496;-69
2022/01/14 05:45:00;;;;;;;25.33;11.57;;;6.30;99.90;;;;;;4963177;28;20056;-68
2022/01/14 05:47:26;;;;;;;23.77;10.93;;;6.30;99.90;;;;;;4961607;28;20066;-68
2022/01/14 05:49:51;;;;;;;26.93;11.00;;;6.30;99.90;;;;;;4959611;28;20035;-69
2022/01/14 05:52:17;;;;;;;22.87;10.63;;;6.30;99.90;;;;;;4949425;28;20177;-69
2022/01/14 05:54:43;;;;;;;22.45;11.77;;;6.30;99.90;;;;;;4968116;28;20045;-68
2022/01/14 05:57:09;;;;;;;27.60;12.27;;;6.30;99.90;;;;;;4964423;28;20155;-69
2022/01/14 05:59:35;;;;;;;;;;;6.30;99.90;;;;;;4957360;28;20053;-68
2022/01/14 06:02:02;;;;;;;26.73;11.50;;;6.30;99.90;;;;;;4964049;28;19917;-69
2022/01/14 06:04:28;;;;;;;24.67;12.20;;;6.30;99.90;;;;;;4964019;28;20503;-69
2022/01/14 06:06:54;;;;;;;23.38;11.70;;;6.30;99.90;;;;;;4964155;28;20043;-69
2022/01/14 06:09:22;;;;;;;28.45;12.10;;;6.30;99.90;;;;;;4958997;28;20507;-69
2022/01/14 06:11:48;;;;;;;24.60;11.77;;;6.40;99.90;;;;;;4956078;28;20073;-69
2022/01/14 06:14:13;;;;;;;28.87;12.03;;;6.30;99.90;;;;;;4965455;28;20501;-69
2022/01/14 06:16:39;;;;;;;28.63;11.83;;;6.40;99.90;;;;;;4959363;28;20042;-69
2022/01/14 06:19:04;;;;;;;22.47;10.03;;;6.40;99.90;;;;;;4961560;28;20042;-69
2022/01/14 06:21:30;;;;;;;22.17;11.07;;;6.40;99.90;;;;;;4966940;28;20117;-69
2022/01/14 06:23:55;;;;;;;22.43;10.33;;;6.40;99.90;;;;;;4936391;28;20026;-69
2022/01/14 06:26:22;;;;;;;23.53;11.03;;;6.40;99.90;;;;;;4959726;28;20035;-69
2022/01/14 06:28:48;;;;;;;;;;;6.30;99.90;;;;;;4961269;28;20085;-69
2022/01/14 06:31:14;;;;;;;23.10;11.07;;;6.30;99.90;;;;;;4958071;28;20362;-68
2022/01/14 06:33:39;;;;;;;19.55;10.80;;;6.40;99.90;;;;;;4941659;28;20042;-69
2022/01/14 06:36:05;;;;;;;25.53;12.17;;;6.40;99.90;;;;;;4964715;28;20515;-69
2022/01/14 06:38:31;;;;;;;28.00;10.67;;;6.40;99.90;;;;;;4961350;28;20042;-68
2022/01/14 06:40:56;;;;;;;25.03;10.50;;;6.30;99.90;;;;;;4958484;28;20125;-69
2022/01/14 06:43:22;;;;;;;33.30;10.77;;;6.30;99.90;;;;;;4965970;28;20046;-69
2022/01/14 06:45:47;;;;;;;22.23;10.30;;;6.40;99.90;;;;;;4964563;28;20347;-69
2022/01/14 06:48:13;;;;;;;22.97;9.33;;;6.30;99.90;;;;;;4964447;28;20069;-69
2022/01/14 06:50:38;;;;;;;23.30;10.23;;;6.40;99.90;;;;;;4958509;28;20130;-69
2022/01/14 06:53:04;;;;;;;23.67;9.50;;;6.40;99.90;;;;;;4959065;28;20111;-67
2022/01/14 06:55:29;;;;;;;20.97;9.40;;;6.40;99.90;;;;;;4969833;28;20578;-69
2022/01/14 06:57:55;;;;;;;31.50;10.60;;;6.40;99.90;;;;;;4951360;28;20416;-68
2022/01/14 07:00:21;;;;;;;23.73;10.63;;;6.40;99.90;;;;;;4962782;28;20026;-68
2022/01/14 07:02:47;;;;;;;26.10;9.73;;;6.40;99.90;;;;;;4958474;28;20050;-69
2022/01/14 07:05:13;;;;;;;22.97;10.00;;;6.40;99.90;;;;;;4962268;28;20031;-71
2022/01/14 07:07:39;;;;;;;28.17;10.67;;;6.40;99.90;;;;;;4964299;28;20030;-71
2022/01/14 07:10:07;;;;;;;19.60;10.50;;;6.30;99.90;;;;;;4962631;28;20298;-71
2022/01/14 07:12:39;;;;;;;18.83;9.57;;;6.40;99.90;;;;;;4961930;28;20034;-71
2022/01/14 07:15:13;;;;;;;28.38;9.70;;;6.40;99.90;;;;;;4960464;28;20047;-70
2022/01/14 07:17:40;;;;;;;28.70;8.90;;;6.40;99.90;;;;;;4960911;28;20034;-71
2022/01/14 07:20:10;;;;;;;;;;;6.40;99.90;;;;;;4969512;28;20077;-71
2022/01/14 07:22:36;;;;;;;30.05;9.60;;;6.40;99.90;;;;;;4943503;28;19918;-70
2022/01/14 07:25:02;;;;;;;22.37;9.07;;;6.40;99.90;;;;;;4955256;28;20034;-71
2022/01/14 07:27:27;;;;;;;17.92;8.63;;;6.40;99.90;;;;;;4958924;28;20041;-71
2022/01/14 07:29:54;;;;;;;20.77;10.10;;;6.40;99.90;;;;;;4958923;28;20051;-71
2022/01/14 07:32:21;;;;;;;23.85;9.20;;;6.40;99.90;;;;;;4958785;28;20046;-71
2022/01/14 07:34:47;;;;;;;22.92;10.63;;;6.40;99.90;;;;;;4959569;28;20038;-69
2022/01/14 07:37:13;;;;;;;20.38;8.15;;;6.40;99.90;;;;;;4958578;28;20053;-69
2022/01/14 07:39:39;;;;;;;25.83;8.13;;;6.40;99.90;;;;;;4955590;28;20050;-69
2022/01/14 07:42:05;;;;;;;23.33;8.57;;;6.40;99.90;;;;;;4978933;28;20039;-68
2022/01/14 07:44:30;;;;;;;16.33;7.97;;;6.40;99.90;;;;;;4942402;28;20050;-69
2022/01/14 07:46:56;;;;;;;23.23;8.60;;;6.40;99.90;;;;;;4947865;28;20051;-69
2022/01/14 07:49:22;;;;;;;18.80;8.13;;;6.40;99.90;;;;;;4956484;28;20038;-69
2022/01/14 07:51:47;;;;;;;15.23;7.17;;;6.40;99.90;;;;;;4954528;28;20057;-68
2022/01/14 07:54:13;;;;;;;20.17;8.23;;;6.40;99.90;;;;;;4963389;28;20101;-69
2022/01/14 07:56:45;;;;;;;24.03;7.17;;;6.40;99.90;;;;;;4966946;28;20281;-69
2022/01/14 07:59:16;;;;;;;17.83;7.95;;;6.40;99.90;;;;;;4954834;28;20093;-69
2022/01/14 08:01:44;;;;;;;23.65;7.50;;;6.50;99.90;;;;;;4961201;28;20245;-69
2022/01/14 08:04:10;;;;;;;17.77;6.47;;;6.50;99.90;;;;;;4965875;28;20046;-69
2022/01/14 08:06:43;;;;;;;17.90;7.10;;;6.50;99.90;;;;;;4965924;28;20515;-69
2022/01/14 08:09:09;;;;;;;19.25;6.80;;;6.50;99.90;;;;;;4960203;28;20484;-69
2022/01/14 08:11:35;;;;;;;17.83;6.73;;;6.50;99.90;;;;;;4963578;28;20042;-69
2022/01/14 08:14:00;;;;;;;16.80;6.20;;;6.50;99.90;;;;;;4963793;28;20172;-69
2022/01/14 08:16:26;;;;;;;20.13;7.00;;;6.50;99.90;;;;;;4962720;28;20121;-69
2022/01/14 08:18:51;;;;;;;14.10;6.17;;;6.50;99.90;;;;;;4967947;28;20058;-69
2022/01/14 08:21:17;;;;;;;11.40;5.13;;;6.50;99.90;;;;;;4959394;28;20110;-69
2022/01/14 08:23:43;;;;;;;13.13;5.47;;;6.60;99.90;;;;;;4962514;28;20047;-68
2022/01/14 08:26:09;;;;;;;19.13;6.10;;;6.50;99.90;;;;;;4957275;28;20519;-69
2022/01/14 08:28:35;;;;;;;16.48;6.10;;;6.60;99.90;;;;;;4960348;28;20050;-69
2022/01/14 08:31:00;;;;;;;12.17;6.27;;;6.60;99.90;;;;;;4957885;28;21009;-68
2022/01/14 08:33:26;;;;;;;18.97;6.23;;;6.60;99.90;;;;;;4955049;28;20520;-68
2022/01/14 08:35:52;;;;;;;18.30;6.27;;;6.60;99.90;;;;;;4968865;28;20087;-69
2022/01/14 08:38:17;;;;;;;16.83;6.10;;;6.60;99.90;;;;;;4957664;28;20254;-69
2022/01/14 08:40:43;;;;;;;17.53;7.37;;;6.60;99.90;;;;;;4954164;28;20089;-68
2022/01/14 08:43:09;;;;;;;21.17;8.52;;;6.60;99.90;;;;;;4958835;28;20035;-69
2022/01/14 08:45:35;;;;;;;15.40;6.20;;;6.60;99.90;;;;;;4961170;28;20284;-69
2022/01/14 08:48:00;;;;;;;19.73;5.53;;;6.70;99.90;;;;;;4959346;28;20034;-69
2022/01/14 08:50:29;;;;;;;16.60;5.53;;;6.60;99.90;;;;;;4952186;28;20954;-69
2022/01/14 08:52:55;;;;;;;19.40;6.32;;;6.70;99.90;;;;;;4959037;28;20070;-68
2022/01/14 08:55:22;;;;;;;23.45;6.47;;;6.70;99.90;;;;;;4963324;28;20114;-69
2022/01/14 08:57:48;;;;;;;19.80;6.72;;;6.70;99.90;;;;;;4960856;28;20039;-69
2022/01/14 09:00:16;;;;;;;17.92;8.02;;;6.70;99.90;;;;;;4960882;28;20050;-69
2022/01/14 09:02:41;;;;;;;16.63;5.38;;;6.80;99.90;;;;;;4963105;28;20384;-69
2022/01/14 09:05:08;;;;;;;21.40;7.17;;;6.80;99.90;;;;;;4963514;28;20089;-69
2022/01/14 09:07:34;;;;;;;;;;;6.80;99.90;;;;;;4958570;28;20051;-68
2022/01/14 09:09:59;;;;;;;7.93;4.32;;;6.80;99.90;;;;;;4958581;28;20046;-69
2022/01/14 09:12:25;;;;;;;17.13;5.20;;;6.80;99.90;;;;;;4960342;28;20043;-68
2022/01/14 09:14:51;;;;;;;6.73;3.77;;;6.90;99.90;;;;;;4955710;28;20045;-68
2022/01/14 09:17:17;;;;;;;11.93;4.97;;;6.90;99.90;;;;;;4952094;28;20039;-69
2022/01/14 09:19:44;;;;;;;11.93;3.85;;;6.90;99.90;;;;;;4959398;28;20533;-68
2022/01/14 09:22:15;;;;;;;20.13;4.35;;;7.00;99.90;;;;;;4962874;28;20035;-68
2022/01/14 09:24:41;;;;;;;11.88;4.18;;;7.00;99.90;;;;;;4966172;28;20077;-69
2022/01/14 09:27:06;;;;;;;15.52;4.68;;;7.00;99.90;;;;;;4965424;28;20027;-69
2022/01/14 09:29:32;;;;;;;15.33;4.57;;;7.00;99.90;;;;;;4965732;28;20046;-69
2022/01/14 09:31:57;;;;;;;11.20;4.03;;;7.10;99.90;;;;;;4952353;28;20480;-69
2022/01/14 09:34:23;;;;;;;10.60;3.67;;;7.10;99.90;;;;;;4964721;28;20658;-69
2022/01/14 09:36:49;;;;;;;10.87;4.13;;;7.10;99.90;;;;;;4960971;28;20573;-69
2022/01/14 09:39:15;;;;;;;12.90;3.40;;;7.20;99.90;;;;;;4964085;28;20178;-69
2022/01/14 09:41:40;;;;;;;13.40;4.10;;;7.20;99.90;;;;;;4963464;28;20142;-73
2022/01/14 09:44:06;;;;;;;8.20;2.93;;;7.20;99.90;;;;;;4954886;28;20169;-69
2022/01/14 09:46:33;;;;;;;6.55;2.60;;;7.30;99.90;;;;;;4965288;28;20042;-69
2022/01/14 09:48:59;;;;;;;10.68;3.20;;;7.30;99.90;;;;;;4954528;28;20362;-68
2022/01/14 09:51:25;;;;;;;12.18;2.38;;;7.30;99.90;;;;;;4958735;28;20101;-69
2022/01/14 09:53:51;;;;;;;8.20;2.70;;;7.30;99.90;;;;;;4956793;28;20047;-69
2022/01/14 09:56:20;;;;;;;15.32;3.30;;;7.30;99.90;;;;;;4960414;28;20066;-69
2022/01/14 09:58:48;;;;;;;7.53;2.90;;;7.30;99.90;;;;;;4954010;28;20042;-68
2022/01/14 10:01:20;;;;;;;12.60;3.95;;;7.30;99.90;;;;;;4947440;28;20187;-69
2022/01/14 10:04:01;;;;;;;14.57;3.28;;;7.40;99.90;;;;;;4954744;28;21398;-75
2022/01/14 10:06:45;;;;;;;12.63;3.25;;;7.40;99.90;;;;;;4947164;28;20432;-73
2022/01/14 10:09:16;;;;;;;13.23;3.53;;;7.40;99.90;;;;;;4958006;28;20407;-74
2022/01/14 10:11:43;;;;;;;12.77;2.80;;;7.40;99.90;;;;;;4960847;28;20051;-72
2022/01/14 10:14:12;;;;;;;7.78;2.40;;;7.40;99.90;;;;;;4961278;28;20038;-72
2022/01/14 10:16:41;;;;;;;12.70;3.05;;;7.40;99.90;;;;;;4955489;28;20389;-72
2022/01/14 10:19:30;;;;;;;19.42;3.10;;;7.40;99.90;;;;;;4946853;28;20255;-72
2022/01/14 10:21:56;;;;;;;9.32;2.65;;;7.40;99.90;;;;;;4960609;28;20046;-69
2022/01/14 10:24:24;;;;;;;9.27;2.55;;;7.50;99.90;;;;;;4965402;28;20105;-69
2022/01/14 10:26:58;;;;;;;10.70;3.17;;;7.50;99.90;;;;;;4955872;28;20049;-68
2022/01/14 10:29:37;;;;;;;12.95;3.47;;;7.50;99.90;;;;;;4960143;28;20047;-69
2022/01/14 10:32:04;;;;;;;14.73;2.55;;;7.60;99.90;;;;;;4955402;28;20445;-69
2022/01/14 10:34:30;;;;;;;16.50;3.03;;;7.60;99.90;;;;;;4961129;28;20416;-69
2022/01/14 10:37:08;;;;;;;12.20;2.53;;;7.60;99.90;;;;;;4960055;28;20035;-69
2022/01/14 10:39:33;;;;;;;14.25;3.35;;;7.60;99.90;;;;;;4958362;28;20058;-69
2022/01/14 10:41:59;;;;;;;7.47;2.90;;;7.60;99.90;;;;;;4956660;28;20043;-68
2022/01/14 10:44:30;;;;;;;13.00;3.17;;;7.60;99.90;;;;;;4966378;28;20407;-69
2022/01/14 10:47:25;;;;;;;10.45;2.97;;;7.60;99.90;;;;;;4959514;28;20093;-69
2022/01/14 10:49:56;;;;;;;13.70;2.60;;;7.60;99.90;;;;;;4962646;28;20067;-69
2022/01/14 10:52:24;;;;;;;19.70;2.72;;;7.60;99.90;;;;;;4959363;28;20305;-69
2022/01/14 10:54:53;;;;;;;10.77;3.13;;;7.60;99.90;;;;;;4956035;28;20105;-69
2022/01/14 10:57:29;;;;;;;11.32;2.67;;;7.60;99.90;;;;;;4950190;28;20455;-69
2022/01/14 11:00:14;;;;;;;13.18;3.13;;;7.60;99.90;;;;;;4951703;28;20532;-69
2022/01/14 11:02:45;;;;;;;6.93;2.75;;;7.60;99.90;;;;;;4959552;28;20237;-69
2022/01/14 11:05:22;;;;;;;9.30;2.42;;;7.60;99.90;;;;;;4929813;28;20090;-69
2022/01/14 11:07:50;;;;;;;18.23;2.50;;;7.60;99.90;;;;;;4952315;28;20038;-69
2022/01/14 11:10:27;;;;;;;8.38;3.05;;;7.60;99.90;;;;;;4958755;28;20031;-69
2022/01/14 11:12:55;;;;;;;12.20;3.28;;;7.60;99.90;;;;;;4962341;28;20054;-69
2022/01/14 11:15:23;;;;;;;11.00;2.97;;;7.60;99.90;;;;;;4963015;28;20399;-69
2022/01/14 11:17:52;;;;;;;13.18;2.88;;;7.60;99.90;;;;;;4962253;28;20043;-68
2022/01/14 11:20:25;;;;;;;14.32;3.15;;;7.60;99.90;;;;;;4961621;28;20123;-69
2022/01/14 11:25:39;;;;;;;9.15;2.95;;;7.60;99.90;;;;;;4960542;28;20043;-69
2022/01/14 11:28:06;;;;;;;9.43;2.65;;;7.60;99.90;;;;;;4966159;28;20491;-70
2022/01/14 11:30:33;;;;;;;13.02;2.75;;;7.60;99.90;;;;;;4959688;28;20086;-69
2022/01/14 11:33:03;;;;;;;12.55;3.03;;;7.60;99.90;;;;;;4966160;28;20042;-69
2022/01/14 11:35:29;;;;;;;11.07;2.42;;;7.60;99.90;;;;;;4964778;28;20045;-70
2022/01/14 11:37:56;;;;;;;;;;;7.60;99.90;;;;;;4966259;28;20097;-68
2022/01/14 11:40:21;;;;;;;16.33;2.90;;;7.60;99.90;;;;;;4965382;28;20398;-68
2022/01/14 11:42:48;;;;;;;12.00;3.07;;;7.60;99.90;;;;;;4956460;28;20047;-70
2022/01/14 11:45:20;;;;;;;10.20;3.05;;;7.60;99.90;;;;;;4956726;28;20047;-69
2022/01/14 11:47:47;;;;;;;12.00;3.00;;;7.60;99.90;;;;;;4958599;28;20034;-69
2022/01/14 11:50:36;;;;;;;12.52;3.40;;;7.60;99.90;;;;;;4952429;28;20043;-70
2022/01/14 11:53:02;;;;;;;10.00;2.75;;;7.70;99.90;;;;;;4959594;28;20154;-70
2022/01/14 11:55:29;;;;;;;16.20;3.00;;;7.70;99.90;;;;;;4957731;28;20125;-70
2022/01/14 11:58:05;;;;;;;15.63;3.30;;;7.70;99.90;;;;;;4956823;28;20106;-70
2022/01/14 12:00:33;;;;;;;16.13;3.22;;;7.70;99.90;;;;;;4965834;28;20117;-69
2022/01/14 12:03:26;;;;;;;11.57;3.75;;;7.70;99.90;;;;;;4958114;28;20449;-69
2022/01/14 12:06:09;;;;;;;19.88;3.72;;;7.70;99.90;;;;;;4960589;28;20054;-68
2022/01/14 12:08:37;;;;;;;16.05;3.42;;;7.70;99.90;;;;;;4971977;28;20117;-70
2022/01/14 12:11:05;;;;;;;9.50;2.50;;;7.70;99.90;;;;;;4959043;28;20047;-70
2022/01/14 12:18:57;;;;;;;8.27;2.40;;;7.70;99.90;;;;;;4953944;28;20050;-70
2022/01/14 12:21:38;;;;;;;8.03;2.73;;;7.70;99.90;;;;;;4961605;28;20039;-70
2022/01/14 12:24:19;;;;;;;15.73;2.88;;;7.80;99.90;;;;;;4955780;28;20321;-70
2022/01/14 12:27:17;;;;;;;17.70;3.22;;;7.80;99.90;;;;;;4970561;28;20546;-70
2022/01/14 12:29:45;;;;;;;13.82;3.00;;;7.80;99.90;;;;;;4962277;28;20078;-68
2022/01/14 12:32:27;;;;;;;16.20;2.67;;;7.80;99.90;;;;;;4961644;28;20320;-70
2022/01/14 12:34:56;;;;;;;11.88;2.70;;;7.80;99.90;;;;;;4960142;28;20514;-70
2022/01/14 12:37:34;;;;;;;16.75;3.35;;;7.80;99.90;;;;;;4948866;28;20396;-69
2022/01/14 12:40:24;;;;;;;10.15;3.25;;;7.80;99.90;;;;;;4963380;28;20047;-70
2022/01/14 12:42:55;;;;;;;11.93;3.28;;;7.80;99.90;;;;;;4967363;28;20298;-70
2022/01/14 12:45:34;;;;;;;12.20;3.45;;;7.80;99.90;;;;;;4961865;28;20397;-70
2022/01/14 12:48:19;;;;;;;11.98;3.55;;;7.90;99.90;;;;;;4968040;28;20051;-70
2022/01/14 12:50:47;;;;;;;17.13;3.90;;;7.80;99.90;;;;;;4959868;28;20445;-70
2022/01/14 12:53:18;;;;;;;20.83;4.15;;;7.80;99.90;;;;;;4963814;28;20039;-69
2022/01/14 12:55:44;;;;;;;12.98;3.35;;;7.80;99.90;;;;;;4969395;28;20055;-69
2022/01/14 12:58:11;;;;;;;11.25;4.30;;;7.80;99.90;;;;;;4956746;28;20043;-69
2022/01/14 13:00:42;;;;;;;16.38;3.70;;;7.80;99.90;;;;;;4967312;28;20046;-70
2022/01/14 13:03:13;;;;;;;16.50;4.15;;;7.80;99.90;;;;;;4966371;28;20034;-69
2022/01/14 13:05:38;;;;;;;16.63;3.72;;;7.80;99.90;;;;;;4970130;28;20058;-70
2022/01/14 13:08:04;;;;;;;13.23;3.47;;;7.80;99.90;;;;;;4971437;28;20035;-69
2022/01/14 13:10:30;;;;;;;11.27;3.63;;;7.80;99.90;;;;;;4952174;28;20130;-70
2022/01/14 13:12:56;;;;;;;17.10;3.95;;;7.80;99.90;;;;;;4964285;28;20043;-70
2022/01/14 13:15:24;;;;;;;14.50;3.70;;;7.80;99.90;;;;;;4973660;28;20043;-69
2022/01/14 13:17:58;;;;;;;11.95;3.60;;;7.80;99.90;;;;;;4962971;28;20500;-69
2022/01/14 13:20:25;;;;;;;20.20;5.10;;;7.80;99.90;;;;;;4961507;28;20071;-70
2022/01/14 13:22:51;;;;;;;17.02;3.65;;;7.80;99.90;;;;;;4963457;28;20078;-70
2022/01/14 13:25:23;;;;;;;14.65;3.53;;;7.80;99.90;;;;;;4966296;28;20138;-68